createdAt,value
2019-02-04T00:02:26.343Z,99.90
2019-02-04T00:04:56.776Z,99.90
2019-02-04T00:07:27.128Z,99.80
2019-02-04T00:09:57.590Z,99.80
2019-02-04T00:12:28.193Z,99.80
2019-02-04T00:14:58.518Z,99.70
2019-02-04T00:17:28.950Z,99.70
2019-02-04T00:19:59.569Z,99.60
2019-02-04T00:22:29.879Z,99.70
2019-02-04T00:25:00.189Z,99.60
2019-02-04T00:27:30.531Z,99.70
2019-02-04T00:30:00.874Z,99.70
2019-02-04T00:32:31.650Z,99.60
2019-02-04T00:35:01.925Z,99.70
2019-02-04T00:37:32.348Z,99.80
2019-02-04T00:40:02.880Z,99.50
2019-02-04T00:42:33.372Z,99.60
2019-02-04T00:45:04.727Z,99.70
2019-02-04T00:47:36.138Z,99.80
2019-02-04T00:50:07.694Z,99.70
2019-02-04T00:52:38.080Z,99.50
2019-02-04T00:55:08.738Z,99.80
2019-02-04T00:57:39.030Z,99.50
2019-02-04T01:00:14.022Z,99.40
2019-02-04T01:02:44.369Z,99.30
2019-02-04T01:05:15.241Z,99.30
2019-02-04T01:07:45.641Z,99.30
2019-02-04T01:10:18.259Z,99.30
2019-02-04T01:12:48.839Z,99.60
2019-02-04T01:15:19.330Z,99.20
2019-02-04T01:17:49.976Z,99.10
2019-02-04T01:20:25.790Z,99.10
2019-02-04T01:22:56.554Z,99.10
2019-02-04T01:25:26.865Z,99.00
2019-02-04T01:27:57.204Z,98.90
2019-02-04T01:30:27.531Z,99.00
2019-02-04T01:32:58.123Z,99.00
2019-02-04T01:35:28.934Z,99.00
2019-02-04T01:37:59.164Z,99.00
2019-02-04T01:40:29.464Z,99.10
2019-02-04T01:43:00.004Z,99.00
2019-02-04T01:45:30.462Z,99.00
2019-02-04T01:48:00.791Z,99.10
2019-02-04T01:50:31.165Z,99.10
2019-02-04T01:53:01.475Z,99.20
2019-02-04T01:55:31.960Z,99.20
2019-02-04T01:58:02.395Z,99.30
2019-02-04T02:00:34.855Z,99.30
2019-02-04T02:03:05.286Z,99.10
2019-02-04T02:05:35.652Z,99.10
2019-02-04T02:08:06.025Z,98.90
2019-02-04T02:10:36.380Z,99.00
2019-02-04T02:13:06.639Z,99.00
2019-02-04T02:15:37.145Z,98.90
2019-02-04T02:18:07.447Z,98.90
2019-02-04T02:20:37.811Z,98.80
2019-02-04T02:23:08.290Z,99.00
2019-02-04T02:25:38.721Z,99.00
2019-02-04T02:28:09.607Z,98.90
2019-02-04T02:30:39.978Z,98.90
2019-02-04T02:33:10.298Z,98.90
2019-02-04T02:35:40.733Z,99.00
2019-02-04T02:38:11.120Z,99.00
2019-02-04T02:40:41.915Z,99.00
2019-02-04T02:43:12.443Z,98.90
2019-02-04T02:45:42.851Z,98.90
2019-02-04T02:48:13.174Z,99.00
2019-02-04T02:50:43.695Z,99.00
2019-02-04T02:53:14.257Z,99.10
2019-02-04T02:55:44.548Z,99.10
2019-02-04T02:58:14.876Z,99.10
2019-02-04T03:00:45.162Z,99.00
2019-02-04T03:03:15.874Z,99.00
2019-02-04T03:05:46.260Z,99.00
2019-02-04T03:08:17.012Z,99.00
2019-02-04T03:10:47.423Z,99.00
2019-02-04T03:13:17.926Z,99.00
2019-02-04T03:15:51.179Z,99.00
2019-02-04T03:18:21.607Z,99.00
2019-02-04T03:20:52.393Z,99.00
2019-02-04T03:23:22.920Z,99.00
2019-02-04T03:25:53.523Z,99.00
2019-02-04T03:28:23.907Z,99.10
2019-02-04T03:30:54.205Z,99.10
2019-02-04T03:33:24.947Z,99.30
2019-02-04T03:35:56.589Z,99.30
2019-02-04T03:38:27.052Z,99.30
2019-02-04T03:40:57.452Z,99.40
2019-02-04T03:43:27.812Z,99.50
2019-02-04T03:45:58.085Z,99.40
2019-02-04T03:48:28.416Z,99.60
2019-02-04T03:50:59.708Z,99.60
2019-02-04T03:53:30.304Z,99.60
2019-02-04T03:56:00.597Z,99.60
2019-02-04T03:58:31.061Z,99.80
2019-02-04T04:01:01.483Z,99.80
2019-02-04T04:03:31.760Z,99.90
2019-02-04T04:06:02.332Z,99.80
2019-02-04T04:08:32.607Z,99.90
2019-02-04T04:11:03.051Z,99.90
2019-02-04T04:13:33.351Z,99.90
2019-02-04T04:16:03.727Z,99.90
2019-02-04T04:18:34.048Z,99.90
2019-02-04T04:21:04.503Z,99.90
2019-02-04T04:23:34.853Z,99.90
2019-02-04T04:26:06.457Z,99.90
2019-02-04T04:28:36.863Z,99.90
2019-02-04T04:31:07.180Z,99.90
2019-02-04T04:33:37.414Z,99.90
2019-02-04T04:36:07.702Z,99.90
2019-02-04T04:38:38.150Z,99.90
2019-02-04T04:41:08.591Z,99.90
2019-02-04T04:43:39.133Z,99.90
2019-02-04T04:46:09.825Z,99.90
2019-02-04T04:48:40.124Z,99.90
2019-02-04T04:51:10.440Z,99.90
2019-02-04T04:53:40.819Z,99.90
2019-02-04T04:56:11.193Z,99.90
2019-02-04T04:58:41.679Z,99.90
2019-02-04T05:01:12.332Z,99.90
2019-02-04T05:03:42.744Z,99.90
2019-02-04T05:06:13.408Z,99.90
2019-02-04T05:08:44.113Z,99.90
2019-02-04T05:11:14.412Z,99.90
2019-02-04T05:13:44.980Z,99.90
2019-02-04T05:16:15.359Z,99.90
2019-02-04T05:18:46.126Z,99.90
2019-02-04T05:21:16.543Z,99.90
2019-02-04T05:23:46.983Z,99.90
2019-02-04T05:26:17.378Z,99.90
2019-02-04T05:28:47.733Z,99.90
2019-02-04T05:31:19.011Z,99.90
2019-02-04T05:33:49.285Z,99.90
2019-02-04T05:36:19.861Z,99.90
2019-02-04T05:38:50.742Z,99.90
2019-02-04T05:41:21.318Z,99.90
2019-02-04T05:43:52.001Z,99.90
2019-02-04T05:46:22.576Z,99.90
2019-02-04T05:48:53.311Z,99.90
2019-02-04T05:51:23.721Z,99.90
2019-02-04T05:53:54.161Z,99.90
2019-02-04T05:56:24.713Z,99.90
2019-02-04T05:58:55.114Z,99.90
2019-02-04T06:01:25.569Z,99.90
2019-02-04T06:03:55.911Z,99.90
2019-02-04T06:06:26.379Z,99.90
2019-02-04T06:08:56.730Z,99.90
2019-02-04T06:11:27.630Z,99.90
2019-02-04T06:13:58.070Z,99.90
2019-02-04T06:16:28.523Z,99.90
2019-02-04T06:19:00.821Z,99.90
2019-02-04T06:21:31.012Z,99.90
2019-02-04T06:24:02.062Z,99.90
2019-02-04T06:26:32.445Z,99.90
2019-02-04T06:29:02.836Z,99.90
2019-02-04T06:31:33.395Z,99.90
2019-02-04T06:34:03.955Z,99.80
2019-02-04T06:36:34.585Z,99.70
2019-02-04T06:39:10.062Z,99.70
2019-02-04T06:41:40.771Z,99.60
2019-02-04T06:44:11.283Z,99.70
2019-02-04T06:46:41.811Z,99.50
2019-02-04T06:49:12.750Z,99.50
2019-02-04T06:51:43.251Z,99.40
2019-02-04T06:54:13.620Z,99.40
2019-02-04T06:56:44.261Z,99.50
2019-02-04T06:59:14.608Z,99.40
2019-02-04T07:01:45.000Z,99.30
2019-02-04T07:04:15.388Z,99.30
2019-02-04T07:06:45.771Z,99.30
2019-02-04T07:09:16.198Z,99.20
2019-02-04T07:26:23.283Z,98.90
2019-02-04T07:28:53.682Z,98.90
2019-02-04T07:31:24.136Z,98.90
2019-02-04T07:33:54.491Z,98.80
2019-02-04T07:36:24.935Z,98.80
2019-02-04T07:38:55.317Z,98.70
2019-02-04T07:41:26.036Z,98.50
2019-02-04T07:43:56.404Z,98.30
2019-02-04T07:46:27.160Z,98.10
2019-02-04T07:48:58.051Z,98.00
2019-02-04T07:51:28.635Z,97.90
2019-02-04T07:53:59.097Z,98.00
2019-02-04T07:56:29.493Z,97.70
2019-02-04T07:59:00.078Z,97.50
2019-02-04T08:01:30.873Z,97.30
2019-02-04T08:04:01.340Z,97.20
2019-02-04T08:06:31.700Z,97.10
2019-02-04T08:09:02.086Z,97.20
2019-02-04T08:11:33.891Z,97.00
2019-02-04T08:14:05.793Z,96.20
2019-02-04T08:16:36.250Z,96.20
2019-02-04T08:19:06.779Z,95.90
2019-02-04T08:21:38.259Z,95.90
2019-02-04T08:24:09.036Z,95.70
2019-02-04T08:26:39.362Z,95.10
2019-02-04T08:29:10.000Z,95.00
2019-02-04T08:31:40.434Z,94.60
2019-02-04T08:34:11.144Z,94.60
2019-02-04T08:36:44.312Z,95.00
2019-02-04T08:39:13.763Z,95.00
2019-02-04T08:41:45.058Z,94.00
2019-02-04T08:44:15.793Z,94.40
2019-02-04T08:46:46.169Z,93.60
2019-02-04T08:49:16.583Z,94.10
2019-02-04T08:51:47.252Z,94.30
2019-02-04T08:54:17.730Z,94.60
2019-02-04T08:56:48.535Z,94.90
2019-02-04T08:59:18.882Z,95.30
2019-02-04T09:01:49.392Z,95.10
2019-02-04T09:04:19.851Z,95.40
2019-02-04T09:06:50.988Z,95.20
2019-02-04T09:09:21.527Z,95.60
2019-02-04T09:11:51.908Z,95.70
2019-02-04T09:14:22.307Z,95.50
2019-02-04T09:16:52.732Z,95.60
2019-02-04T09:19:23.206Z,95.20
2019-02-04T09:21:53.705Z,95.30
2019-02-04T09:24:24.377Z,94.90
2019-02-04T09:26:55.763Z,95.20
2019-02-04T09:29:26.149Z,94.80
2019-02-04T09:31:56.568Z,94.40
2019-02-04T09:34:29.809Z,94.00
2019-02-04T09:36:59.036Z,93.70
2019-02-04T09:39:30.407Z,94.20
2019-02-04T09:42:00.751Z,93.00
2019-02-04T09:44:31.311Z,93.90
2019-02-04T09:47:01.799Z,93.30
2019-02-04T09:49:32.233Z,92.90
2019-02-04T09:52:03.706Z,92.70
2019-02-04T09:54:34.328Z,92.60
2019-02-04T09:57:05.139Z,92.50
2019-02-04T09:59:35.699Z,92.80
2019-02-04T10:02:06.232Z,91.80
2019-02-04T10:04:37.344Z,91.90
2019-02-04T10:07:07.813Z,92.20
2019-02-04T10:09:38.425Z,92.00
2019-02-04T10:12:08.750Z,92.60
2019-02-04T10:14:39.309Z,91.90
2019-02-04T10:17:09.702Z,91.70
2019-02-04T10:19:40.483Z,91.20
2019-02-04T10:22:10.932Z,91.70
2019-02-04T10:24:41.997Z,90.40
2019-02-04T10:27:12.422Z,90.30
2019-02-04T10:29:45.130Z,90.60
2019-02-04T10:32:15.676Z,90.40
2019-02-04T10:34:46.017Z,89.60
2019-02-04T10:37:16.607Z,90.00
2019-02-04T10:39:47.162Z,90.70
2019-02-04T10:42:17.469Z,91.00
2019-02-04T10:44:48.255Z,91.30
2019-02-04T10:47:19.577Z,91.80
2019-02-04T10:49:50.037Z,92.30
2019-02-04T10:52:20.534Z,92.30
2019-02-04T10:54:50.942Z,92.30
2019-02-04T10:57:21.785Z,92.30
2019-02-04T10:59:52.223Z,92.20
2019-02-04T11:02:23.067Z,92.80
2019-02-04T11:04:53.567Z,92.40
2019-02-04T11:07:23.994Z,92.60
2019-02-04T11:09:55.281Z,92.70
2019-02-04T11:12:25.693Z,92.60
2019-02-04T11:14:56.805Z,91.90
2019-02-04T11:17:27.211Z,91.50
2019-02-04T11:19:57.624Z,90.70
2019-02-04T11:22:27.985Z,91.00
2019-02-04T11:24:58.318Z,90.30
2019-02-04T11:27:28.870Z,89.60
2019-02-04T11:29:59.413Z,90.50
2019-02-04T11:32:29.815Z,90.50
2019-02-04T11:35:00.253Z,91.10
2019-02-04T11:37:31.180Z,91.30
2019-02-04T11:40:01.459Z,91.70
2019-02-04T11:42:31.903Z,92.00
2019-02-04T11:45:02.346Z,92.20
2019-02-04T11:47:33.028Z,92.00
2019-02-04T11:50:03.863Z,92.90
2019-02-04T11:52:35.120Z,92.20
2019-02-04T11:55:06.340Z,92.50
2019-02-04T11:57:36.768Z,92.30
2019-02-04T12:00:09.681Z,92.70
2019-02-04T12:02:40.383Z,93.10
2019-02-04T12:05:12.095Z,93.00
2019-02-04T12:07:44.643Z,93.20
2019-02-04T12:10:18.602Z,93.00
2019-02-04T12:12:48.937Z,93.10
2019-02-04T12:15:20.694Z,91.90
2019-02-04T12:17:52.102Z,92.50
2019-02-04T12:20:22.532Z,92.20
2019-02-04T12:22:53.109Z,92.40
2019-02-04T12:25:24.359Z,92.50
2019-02-04T12:27:55.531Z,91.70
2019-02-04T12:30:30.938Z,90.90
2019-02-04T12:33:00.601Z,90.90
2019-02-04T12:35:31.082Z,90.00
2019-02-04T12:38:01.532Z,90.10
2019-02-04T12:40:32.793Z,90.50
2019-02-04T12:43:03.174Z,90.50
2019-02-04T12:45:34.335Z,90.40
2019-02-04T12:48:04.800Z,90.40
2019-02-04T12:50:35.372Z,90.70
2019-02-04T12:53:06.676Z,90.40
2019-02-04T12:55:37.214Z,90.90
2019-02-04T12:58:07.894Z,90.40
2019-02-04T13:00:38.255Z,90.80
2019-02-04T13:03:08.662Z,91.00
2019-02-04T13:05:50.701Z,90.00
2019-02-04T13:08:21.206Z,90.50
2019-02-04T13:10:51.527Z,90.30
2019-02-04T13:13:23.819Z,90.50
2019-02-04T13:15:54.219Z,90.70
2019-02-04T13:18:28.131Z,90.00
2019-02-04T13:20:58.587Z,90.60
2019-02-04T13:23:29.200Z,90.70
2019-02-04T13:25:59.643Z,90.60
2019-02-04T13:28:30.056Z,90.60
2019-02-04T13:31:00.881Z,90.90
2019-02-04T13:33:31.321Z,91.10
2019-02-04T13:36:01.694Z,91.20
2019-02-04T13:38:32.233Z,91.10
2019-02-04T13:41:08.201Z,90.80
2019-02-04T13:43:34.606Z,90.90
2019-02-04T13:46:05.981Z,90.50
2019-02-04T13:48:38.311Z,90.70
2019-02-04T13:51:08.845Z,90.60
2019-02-04T13:53:39.287Z,90.80
2019-02-04T13:56:09.769Z,90.60
2019-02-04T13:58:40.142Z,90.70
2019-02-04T14:01:10.917Z,91.10
2019-02-04T14:03:41.456Z,90.90
2019-02-04T14:06:12.075Z,91.20
2019-02-04T14:08:42.820Z,91.50
2019-02-04T14:11:13.331Z,91.50
2019-02-04T14:13:43.744Z,91.80
2019-02-04T14:16:14.437Z,91.70
2019-02-04T14:18:44.772Z,91.80
2019-02-04T14:21:15.213Z,91.50
2019-02-04T14:23:45.786Z,90.80
2019-02-04T14:26:16.282Z,90.90
2019-02-04T14:42:39.428Z,91.20
2019-02-04T14:45:16.186Z,91.30
2019-02-04T14:48:03.089Z,91.10
2019-02-04T14:51:05.085Z,90.30
2019-02-04T14:54:10.868Z,90.70
2019-02-04T14:56:55.407Z,90.70
2019-02-04T14:59:40.636Z,90.90
2019-02-04T15:02:40.014Z,91.80
2019-02-04T15:05:35.468Z,90.50
2019-02-04T15:08:44.444Z,91.00
2019-02-04T15:11:37.949Z,91.40
2019-02-04T15:14:36.176Z,91.50
2019-02-04T15:17:28.393Z,91.50
2019-02-04T15:20:37.402Z,91.70
2019-02-04T15:23:39.412Z,91.60
2019-02-04T15:26:33.204Z,91.90
2019-02-04T15:29:22.821Z,92.20
2019-02-04T15:32:31.730Z,92.30
2019-02-04T15:35:40.682Z,92.50
2019-02-04T15:38:22.193Z,92.80
2019-02-04T15:41:07.798Z,93.00
2019-02-04T15:43:51.066Z,93.00
2019-02-04T15:46:51.727Z,93.00
2019-02-04T15:50:01.007Z,93.10
2019-02-04T15:52:32.613Z,93.20
2019-02-04T15:55:08.021Z,93.70
2019-02-04T15:57:38.433Z,93.90
2019-02-04T16:00:09.793Z,93.70
2019-02-04T16:02:40.092Z,94.20
2019-02-04T16:05:10.670Z,94.30
2019-02-04T16:07:41.485Z,94.70
2019-02-04T16:10:14.460Z,94.50
2019-02-04T16:12:47.692Z,94.70
2019-02-04T16:15:17.048Z,95.00
2019-02-04T16:17:47.482Z,95.50
2019-02-04T16:20:21.207Z,95.10
2019-02-04T16:22:58.563Z,95.00
2019-02-04T16:25:23.618Z,94.90
2019-02-04T16:27:54.072Z,94.90
2019-02-04T16:30:24.671Z,94.90
2019-02-04T16:32:55.355Z,94.60
2019-02-04T16:35:25.862Z,94.40
2019-02-04T16:37:56.323Z,94.00
2019-02-04T16:40:26.843Z,93.70
2019-02-04T16:42:57.451Z,94.10
2019-02-04T16:45:27.752Z,94.20
2019-02-04T16:47:58.122Z,93.80
2019-02-04T16:50:29.153Z,93.70
2019-02-04T16:53:10.245Z,93.90
2019-02-04T16:55:31.804Z,94.10
2019-02-04T16:58:02.274Z,94.20
2019-02-04T17:00:32.995Z,93.10
2019-02-04T17:03:03.461Z,91.10
2019-02-04T17:05:33.783Z,90.10
2019-02-04T17:08:04.484Z,91.90
2019-02-04T17:10:36.103Z,92.00
2019-02-04T17:13:07.022Z,91.40
2019-02-04T17:15:40.513Z,91.50
2019-02-04T17:18:10.933Z,92.10
2019-02-04T17:20:41.284Z,91.40
2019-02-04T17:23:21.866Z,91.30
2019-02-04T17:25:43.871Z,91.20
2019-02-04T17:28:14.443Z,91.60
2019-02-04T17:30:44.812Z,91.70
2019-02-04T17:33:15.223Z,91.70
2019-02-04T17:35:45.581Z,91.30
2019-02-04T17:38:16.121Z,91.40
2019-02-04T17:40:46.645Z,90.90
2019-02-04T17:43:17.256Z,91.00
2019-02-04T17:45:47.949Z,91.50
2019-02-04T17:48:18.262Z,91.50
2019-02-04T17:50:48.565Z,91.60
2019-02-04T17:53:19.607Z,92.10
2019-02-04T17:55:49.852Z,91.60
2019-02-04T17:58:20.241Z,92.00
2019-02-04T18:00:52.291Z,91.80
2019-02-04T18:03:22.962Z,91.80
2019-02-04T18:05:53.484Z,92.00
2019-02-04T18:08:23.962Z,92.30
2019-02-04T18:10:55.156Z,91.80
2019-02-04T18:13:25.687Z,91.20
2019-02-04T18:15:56.323Z,90.80
2019-02-04T18:18:26.685Z,88.90
2019-02-04T18:20:57.261Z,90.80
2019-02-04T18:23:27.702Z,90.30
2019-02-04T18:25:58.311Z,91.30
2019-02-04T18:28:28.962Z,92.10
2019-02-04T18:30:59.413Z,92.10
2019-02-04T18:33:29.894Z,92.10
2019-02-04T18:36:00.421Z,91.80
2019-02-04T18:38:32.012Z,91.20
2019-02-04T18:41:02.920Z,91.60
2019-02-04T18:43:33.452Z,91.80
2019-02-04T18:46:03.888Z,91.40
2019-02-04T18:48:34.839Z,91.40
2019-02-04T18:51:05.476Z,91.20
2019-02-04T18:53:35.958Z,91.80
2019-02-04T18:56:06.542Z,91.80
2019-02-04T18:58:37.262Z,92.40
2019-02-04T19:01:07.832Z,91.10
2019-02-04T19:03:38.470Z,91.10
2019-02-04T19:06:09.912Z,91.90
2019-02-04T19:08:41.031Z,91.40
2019-02-04T19:11:11.478Z,91.50
2019-02-04T19:13:42.000Z,91.50
2019-02-04T19:16:13.612Z,92.00
2019-02-04T19:18:44.151Z,91.70
2019-02-04T19:21:14.816Z,91.00
2019-02-04T19:23:45.537Z,91.00
2019-02-04T19:26:16.056Z,91.40
2019-02-04T19:28:47.579Z,91.80
2019-02-04T19:31:24.506Z,91.30
2019-02-04T19:33:55.193Z,91.10
2019-02-04T19:36:26.026Z,91.40
2019-02-04T19:38:57.031Z,91.50
2019-02-04T19:41:27.520Z,90.90
2019-02-04T19:43:58.125Z,91.20
2019-02-04T19:46:28.571Z,91.10
2019-02-04T19:48:59.703Z,91.30
2019-02-04T19:51:30.077Z,91.40
2019-02-04T19:54:00.562Z,91.10
2019-02-04T19:56:31.082Z,90.80
2019-02-04T19:59:01.591Z,90.90
2019-02-04T20:01:32.337Z,90.10
2019-02-04T20:04:02.902Z,90.60
2019-02-04T20:06:33.271Z,91.30
2019-02-04T20:09:05.274Z,90.80
2019-02-04T20:11:37.611Z,91.10
2019-02-04T20:14:08.301Z,90.20
2019-02-04T20:16:39.468Z,90.00
2019-02-04T20:19:09.996Z,90.00
2019-02-04T20:21:40.782Z,89.40
2019-02-04T20:24:11.204Z,88.50
2019-02-04T20:26:41.758Z,89.40
2019-02-04T20:29:12.265Z,88.70
2019-02-04T20:31:42.527Z,87.90
2019-02-04T20:34:12.853Z,89.90
2019-02-04T20:36:43.274Z,90.10
2019-02-04T20:39:13.753Z,89.90
2019-02-04T20:41:44.293Z,89.80
2019-02-04T20:44:19.143Z,90.20
2019-02-04T20:46:48.634Z,89.50
2019-02-04T20:49:19.164Z,90.30
2019-02-04T20:51:49.686Z,90.80
2019-02-04T20:54:21.469Z,90.80
2019-02-04T20:56:52.274Z,90.10
2019-02-04T20:59:22.706Z,90.10
2019-02-04T21:01:53.045Z,90.30
2019-02-04T21:04:23.402Z,90.30
2019-02-04T21:06:56.184Z,88.40
2019-02-04T21:09:25.796Z,88.60
2019-02-04T21:11:56.182Z,88.10
2019-02-04T21:14:26.674Z,86.10
2019-02-04T21:16:57.026Z,86.30
2019-02-04T21:19:27.475Z,85.70
2019-02-04T21:21:59.203Z,86.40
2019-02-04T21:24:29.936Z,85.20
2019-02-04T21:27:00.576Z,86.70
2019-02-04T21:29:31.315Z,87.50
2019-02-04T21:32:01.943Z,88.20
2019-02-04T21:34:32.367Z,88.10
2019-02-04T21:37:03.170Z,89.70
2019-02-04T21:39:33.646Z,90.00
2019-02-04T21:42:04.044Z,87.90
2019-02-04T21:44:34.587Z,87.90
2019-02-04T21:47:05.059Z,88.00
2019-02-04T21:49:35.482Z,87.90
2019-02-04T21:52:05.868Z,88.70
2019-02-04T21:54:36.373Z,88.70
2019-02-04T21:57:06.764Z,88.60
2019-02-04T21:59:37.464Z,88.90
2019-02-04T22:02:07.915Z,89.30
2019-02-04T22:04:38.792Z,88.60
2019-02-04T22:07:09.792Z,89.90
2019-02-04T22:09:40.483Z,89.30
2019-02-04T22:12:11.025Z,88.60
2019-02-04T22:14:41.282Z,87.90
2019-02-04T22:17:11.578Z,87.80
2019-02-04T22:19:42.063Z,87.20
2019-02-04T22:22:12.402Z,87.80
2019-02-04T22:24:42.772Z,87.10
2019-02-04T22:27:13.167Z,85.70
2019-02-04T22:29:43.441Z,86.80
2019-02-04T22:32:13.812Z,85.50
2019-02-04T22:34:45.688Z,86.40
2019-02-04T22:37:16.203Z,86.60
2019-02-04T22:39:46.632Z,86.90
2019-02-04T22:42:16.976Z,86.80
2019-02-04T22:44:47.262Z,87.50
2019-02-04T22:47:17.682Z,88.50
2019-02-04T22:49:48.148Z,88.50
2019-02-04T22:52:18.661Z,88.60
2019-02-04T22:54:48.982Z,88.90
2019-02-04T22:57:19.377Z,88.40
2019-02-04T22:59:50.042Z,88.10
2019-02-04T23:02:20.502Z,87.90
2019-02-04T23:04:50.991Z,88.40
2019-02-04T23:07:21.292Z,88.40
2019-02-04T23:09:51.630Z,88.30
2019-02-04T23:12:22.088Z,87.60
2019-02-04T23:14:52.625Z,87.10
2019-02-04T23:17:22.957Z,86.50
2019-02-04T23:19:53.565Z,86.30
2019-02-04T23:22:23.979Z,86.20
2019-02-04T23:24:54.344Z,85.90
2019-02-04T23:27:24.905Z,84.80
2019-02-04T23:29:55.275Z,84.10
2019-02-04T23:32:25.586Z,84.30
2019-02-04T23:34:56.005Z,84.70
2019-02-04T23:37:26.539Z,84.70
2019-02-04T23:39:57.962Z,85.20
2019-02-04T23:42:28.405Z,84.40
2019-02-04T23:44:58.809Z,85.20
2019-02-04T23:47:29.180Z,85.80
2019-02-04T23:49:59.451Z,86.70
2019-02-04T23:52:29.796Z,86.60
2019-02-04T23:55:00.107Z,86.40
2019-02-04T23:57:30.532Z,86.20
